Russia, New York
Current Conditions -  °F | °C
As of 2:53 PM on Saturday 20 Dec 2014 (Local Time) from KRME Reporting Station
Scattered Clouds Scattered Clouds  
Wind Chill: 24°   Ceiling: Unl
Heat Index: 29°   Visibility: 10mi
Dew Point: 19°   Wind: 5mph
Humidity: 67%   Direction: 40°NE
Pressure: 30.27"   Gusts: NA
Location:  43.1704°N, 75.068°W
Report Text: KRME 201953Z 04004KT 10SM SCT026 M02/M07 A3027 RMK AO2 SLP257 T10171072
Loading
Personal Weather Stations






























Interactive Weather Map New forecast layout! Learn more

10-Day Weather Forecast

Advertisements
Track Severe Weather on mobile